sensor_id;sensor_type;location;lat;lon;timestamp;P1;durP1;ratioP1;P2;durP2;ratioP2
6374;SDS011;35400;45.472;-122.822;2023-05-20T00:01:02;2.88;;;2.42;;
6374;SDS011;35400;45.472;-122.822;2023-05-20T00:03:29;2.97;;;2.30;;
6374;SDS011;35400;45.472;-122.822;2023-05-20T00:05:56;6.07;;;2.75;;
6374;SDS011;35400;45.472;-122.822;2023-05-20T00:08:23;4.18;;;2.60;;
6374;SDS011;35400;45.472;-122.822;2023-05-20T00:10:50;2.42;;;2.22;;
6374;SDS011;35400;45.472;-122.822;2023-05-20T00:13:17;5.03;;;2.53;;
6374;SDS011;35400;45.472;-122.822;2023-05-20T00:15:44;2.90;;;2.42;;
6374;SDS011;35400;45.472;-122.822;2023-05-20T00:18:10;3.50;;;2.20;;
6374;SDS011;35400;45.472;-122.822;2023-05-20T00:20:37;5.85;;;2.20;;
6374;SDS011;35400;45.472;-122.822;2023-05-20T00:23:04;3.53;;;2.65;;
6374;SDS011;35400;45.472;-122.822;2023-05-20T00:25:31;3.50;;;2.20;;
6374;SDS011;35400;45.472;-122.822;2023-05-20T00:27:58;2.83;;;2.50;;
6374;SDS011;35400;45.472;-122.822;2023-05-20T00:30:25;3.38;;;2.22;;
6374;SDS011;35400;45.472;-122.822;2023-05-20T00:32:52;3.80;;;2.47;;
6374;SDS011;35400;45.472;-122.822;2023-05-20T00:35:19;2.67;;;2.47;;
6374;SDS011;35400;45.472;-122.822;2023-05-20T00:37:46;3.08;;;2.30;;
6374;SDS011;35400;45.472;-122.822;2023-05-20T00:40:13;5.90;;;2.20;;
6374;SDS011;35400;45.472;-122.822;2023-05-20T00:42:40;3.75;;;2.38;;
6374;SDS011;35400;45.472;-122.822;2023-05-20T00:45:07;2.47;;;2.28;;
6374;SDS011;35400;45.472;-122.822;2023-05-20T00:47:34;3.58;;;2.72;;
6374;SDS011;35400;45.472;-122.822;2023-05-20T00:50:02;2.83;;;2.38;;
6374;SDS011;35400;45.472;-122.822;2023-05-20T00:52:30;2.40;;;1.95;;
6374;SDS011;35400;45.472;-122.822;2023-05-20T00:54:57;3.45;;;2.42;;
6374;SDS011;35400;45.472;-122.822;2023-05-20T00:57:26;2.72;;;2.22;;
6374;SDS011;35400;45.472;-122.822;2023-05-20T00:59:53;5.90;;;2.35;;
6374;SDS011;35400;45.472;-122.822;2023-05-20T01:02:20;4.15;;;2.58;;
6374;SDS011;35400;45.472;-122.822;2023-05-20T01:04:48;4.68;;;2.10;;
6374;SDS011;35400;45.472;-122.822;2023-05-20T01:07:16;3.53;;;2.05;;
6374;SDS011;35400;45.472;-122.822;2023-05-20T01:09:45;2.53;;;2.33;;
6374;SDS011;35400;45.472;-122.822;2023-05-20T01:12:15;3.63;;;2.38;;
6374;SDS011;35400;45.472;-122.822;2023-05-20T01:14:48;4.43;;;2.33;;
6374;SDS011;35400;45.472;-122.822;2023-05-20T01:17:17;3.35;;;2.00;;
6374;SDS011;35400;45.472;-122.822;2023-05-20T01:19:46;2.47;;;2.05;;
6374;SDS011;35400;45.472;-122.822;2023-05-20T01:22:14;2.30;;;1.98;;
6374;SDS011;35400;45.472;-122.822;2023-05-20T01:24:42;3.28;;;2.22;;
6374;SDS011;35400;45.472;-122.822;2023-05-20T01:27:11;2.17;;;1.98;;
6374;SDS011;35400;45.472;-122.822;2023-05-20T01:29:40;2.20;;;1.92;;
6374;SDS011;35400;45.472;-122.822;2023-05-20T01:32:14;2.83;;;2.30;;
6374;SDS011;35400;45.472;-122.822;2023-05-20T01:34:49;4.82;;;2.42;;
6374;SDS011;35400;45.472;-122.822;2023-05-20T01:37:18;3.47;;;2.25;;
6374;SDS011;35400;45.472;-122.822;2023-05-20T01:39:47;2.08;;;1.88;;
6374;SDS011;35400;45.472;-122.822;2023-05-20T01:42:15;7.93;;;2.35;;
6374;SDS011;35400;45.472;-122.822;2023-05-20T01:44:44;3.13;;;2.15;;
6374;SDS011;35400;45.472;-122.822;2023-05-20T01:47:11;2.75;;;2.50;;
6374;SDS011;35400;45.472;-122.822;2023-05-20T01:49:40;2.55;;;2.20;;
6374;SDS011;35400;45.472;-122.822;2023-05-20T01:52:07;5.05;;;2.33;;
6374;SDS011;35400;45.472;-122.822;2023-05-20T01:54:34;3.72;;;2.28;;
6374;SDS011;35400;45.472;-122.822;2023-05-20T01:57:02;2.40;;;1.88;;
6374;SDS011;35400;45.472;-122.822;2023-05-20T01:59:29;2.85;;;2.08;;
6374;SDS011;35400;45.472;-122.822;2023-05-20T02:01:55;2.40;;;2.17;;
6374;SDS011;35400;45.472;-122.822;2023-05-20T02:04:22;3.45;;;2.13;;
6374;SDS011;35400;45.472;-122.822;2023-05-20T02:06:49;2.78;;;2.10;;
6374;SDS011;35400;45.472;-122.822;2023-05-20T02:09:17;3.25;;;2.38;;
6374;SDS011;35400;45.472;-122.822;2023-05-20T02:11:44;2.85;;;2.10;;
6374;SDS011;35400;45.472;-122.822;2023-05-20T02:14:10;4.13;;;2.05;;
6374;SDS011;35400;45.472;-122.822;2023-05-20T02:16:37;2.67;;;2.20;;
6374;SDS011;35400;45.472;-122.822;2023-05-20T02:19:04;2.58;;;2.17;;
6374;SDS011;35400;45.472;-122.822;2023-05-20T02:21:40;2.90;;;2.33;;
6374;SDS011;35400;45.472;-122.822;2023-05-20T02:24:08;3.17;;;2.30;;
6374;SDS011;35400;45.472;-122.822;2023-05-20T02:26:35;4.05;;;2.28;;
6374;SDS011;35400;45.472;-122.822;2023-05-20T02:29:02;2.65;;;2.45;;
6374;SDS011;35400;45.472;-122.822;2023-05-20T02:31:29;2.75;;;2.20;;
6374;SDS011;35400;45.472;-122.822;2023-05-20T02:33:56;3.08;;;2.08;;
6374;SDS011;35400;45.472;-122.822;2023-05-20T02:36:23;3.75;;;2.60;;
6374;SDS011;35400;45.472;-122.822;2023-05-20T02:38:50;3.25;;;2.22;;
6374;SDS011;35400;45.472;-122.822;2023-05-20T02:41:19;3.95;;;3.00;;
6374;SDS011;35400;45.472;-122.822;2023-05-20T02:43:46;4.35;;;2.60;;
6374;SDS011;35400;45.472;-122.822;2023-05-20T02:46:13;4.20;;;2.60;;
6374;SDS011;35400;45.472;-122.822;2023-05-20T02:48:41;3.25;;;3.05;;
6374;SDS011;35400;45.472;-122.822;2023-05-20T02:51:08;3.80;;;2.58;;
6374;SDS011;35400;45.472;-122.822;2023-05-20T02:53:35;3.83;;;2.42;;
6374;SDS011;35400;45.472;-122.822;2023-05-20T02:56:03;2.60;;;2.40;;
6374;SDS011;35400;45.472;-122.822;2023-05-20T02:58:30;3.97;;;3.03;;
6374;SDS011;35400;45.472;-122.822;2023-05-20T03:00:57;3.67;;;2.53;;
6374;SDS011;35400;45.472;-122.822;2023-05-20T03:03:25;3.33;;;2.83;;
6374;SDS011;35400;45.472;-122.822;2023-05-20T03:05:52;4.57;;;2.45;;
6374;SDS011;35400;45.472;-122.822;2023-05-20T03:08:20;2.67;;;2.47;;
6374;SDS011;35400;45.472;-122.822;2023-05-20T03:10:47;2.72;;;2.53;;
6374;SDS011;35400;45.472;-122.822;2023-05-20T03:13:15;3.28;;;2.78;;
6374;SDS011;35400;45.472;-122.822;2023-05-20T03:15:42;4.38;;;2.33;;
6374;SDS011;35400;45.472;-122.822;2023-05-20T03:18:10;3.58;;;2.45;;
6374;SDS011;35400;45.472;-122.822;2023-05-20T03:20:38;2.35;;;1.92;;
6374;SDS011;35400;45.472;-122.822;2023-05-20T03:23:06;3.05;;;1.75;;
6374;SDS011;35400;45.472;-122.822;2023-05-20T03:25:35;2.65;;;2.38;;
6374;SDS011;35400;45.472;-122.822;2023-05-20T03:28:03;2.00;;;1.60;;
6374;SDS011;35400;45.472;-122.822;2023-05-20T03:30:33;4.75;;;1.90;;
6374;SDS011;35400;45.472;-122.822;2023-05-20T03:33:00;3.28;;;1.90;;
6374;SDS011;35400;45.472;-122.822;2023-05-20T03:35:27;2.35;;;2.05;;
6374;SDS011;35400;45.472;-122.822;2023-05-20T03:37:54;3.33;;;1.88;;
6374;SDS011;35400;45.472;-122.822;2023-05-20T03:40:23;6.38;;;2.33;;
6374;SDS011;35400;45.472;-122.822;2023-05-20T03:42:50;1.90;;;1.73;;
6374;SDS011;35400;45.472;-122.822;2023-05-20T03:45:19;3.53;;;1.80;;
6374;SDS011;35400;45.472;-122.822;2023-05-20T03:48:06;2.97;;;1.70;;
6374;SDS011;35400;45.472;-122.822;2023-05-20T03:50:34;2.80;;;1.58;;
6374;SDS011;35400;45.472;-122.822;2023-05-20T03:53:01;2.53;;;1.88;;
6374;SDS011;35400;45.472;-122.822;2023-05-20T03:55:34;3.90;;;2.20;;
6374;SDS011;35400;45.472;-122.822;2023-05-20T03:58:02;3.00;;;2.00;;
6374;SDS011;35400;45.472;-122.822;2023-05-20T04:00:30;2.85;;;2.05;;
6374;SDS011;35400;45.472;-122.822;2023-05-20T04:02:58;5.10;;;1.83;;
6374;SDS011;35400;45.472;-122.822;2023-05-20T04:05:25;3.65;;;1.80;;
6374;SDS011;35400;45.472;-122.822;2023-05-20T04:07:53;3.67;;;2.10;;
6374;SDS011;35400;45.472;-122.822;2023-05-20T04:10:23;5.07;;;2.25;;
6374;SDS011;35400;45.472;-122.822;2023-05-20T04:12:50;1.95;;;1.73;;
6374;SDS011;35400;45.472;-122.822;2023-05-20T04:15:19;3.92;;;2.17;;
6374;SDS011;35400;45.472;-122.822;2023-05-20T04:17:53;5.30;;;2.25;;
6374;SDS011;35400;45.472;-122.822;2023-05-20T04:20:20;2.25;;;2.03;;
6374;SDS011;35400;45.472;-122.822;2023-05-20T04:22:51;4.97;;;1.83;;
6374;SDS011;35400;45.472;-122.822;2023-05-20T04:25:20;2.78;;;1.80;;
6374;SDS011;35400;45.472;-122.822;2023-05-20T04:27:47;3.97;;;2.08;;
6374;SDS011;35400;45.472;-122.822;2023-05-20T04:30:14;3.58;;;2.00;;
6374;SDS011;35400;45.472;-122.822;2023-05-20T04:32:45;4.38;;;2.40;;
6374;SDS011;35400;45.472;-122.822;2023-05-20T04:35:13;2.72;;;1.90;;
6374;SDS011;35400;45.472;-122.822;2023-05-20T04:37:42;3.55;;;2.25;;
6374;SDS011;35400;45.472;-122.822;2023-05-20T04:40:12;4.43;;;2.00;;
6374;SDS011;35400;45.472;-122.822;2023-05-20T04:42:40;2.53;;;1.58;;
6374;SDS011;35400;45.472;-122.822;2023-05-20T04:45:10;4.22;;;2.25;;
6374;SDS011;35400;45.472;-122.822;2023-05-20T04:47:39;2.50;;;2.30;;
6374;SDS011;35400;45.472;-122.822;2023-05-20T04:50:08;2.40;;;2.00;;
6374;SDS011;35400;45.472;-122.822;2023-05-20T04:52:38;7.18;;;2.67;;
6374;SDS011;35400;45.472;-122.822;2023-05-20T04:55:08;2.05;;;1.83;;
6374;SDS011;35400;45.472;-122.822;2023-05-20T04:57:37;6.15;;;2.08;;
6374;SDS011;35400;45.472;-122.822;2023-05-20T05:00:07;5.03;;;2.25;;
6374;SDS011;35400;45.472;-122.822;2023-05-20T05:02:36;4.93;;;2.55;;
6374;SDS011;35400;45.472;-122.822;2023-05-20T05:05:03;7.15;;;3.28;;
6374;SDS011;35400;45.472;-122.822;2023-05-20T05:07:30;3.90;;;3.53;;
6374;SDS011;35400;45.472;-122.822;2023-05-20T05:09:57;3.67;;;2.63;;
6374;SDS011;35400;45.472;-122.822;2023-05-20T05:12:25;6.03;;;2.72;;
6374;SDS011;35400;45.472;-122.822;2023-05-20T05:14:52;5.45;;;3.45;;
6374;SDS011;35400;45.472;-122.822;2023-05-20T05:17:19;5.15;;;3.97;;
6374;SDS011;35400;45.472;-122.822;2023-05-20T05:19:46;4.20;;;3.63;;
6374;SDS011;35400;45.472;-122.822;2023-05-20T05:22:13;6.45;;;4.22;;
6374;SDS011;35400;45.472;-122.822;2023-05-20T05:24:40;6.88;;;4.50;;
6374;SDS011;35400;45.472;-122.822;2023-05-20T05:27:06;5.40;;;4.50;;
6374;SDS011;35400;45.472;-122.822;2023-05-20T05:29:33;4.97;;;4.50;;
6374;SDS011;35400;45.472;-122.822;2023-05-20T05:32:00;4.90;;;4.35;;
6374;SDS011;35400;45.472;-122.822;2023-05-20T05:34:27;5.28;;;3.92;;
6374;SDS011;35400;45.472;-122.822;2023-05-20T05:36:54;4.70;;;4.30;;
6374;SDS011;35400;45.472;-122.822;2023-05-20T05:39:21;3.55;;;3.22;;
6374;SDS011;35400;45.472;-122.822;2023-05-20T05:41:47;5.80;;;3.22;;
6374;SDS011;35400;45.472;-122.822;2023-05-20T05:44:15;4.70;;;3.17;;
6374;SDS011;35400;45.472;-122.822;2023-05-20T05:46:41;4.32;;;2.90;;
6374;SDS011;35400;45.472;-122.822;2023-05-20T05:49:09;3.10;;;2.53;;
6374;SDS011;35400;45.472;-122.822;2023-05-20T05:51:36;3.65;;;2.83;;
6374;SDS011;35400;45.472;-122.822;2023-05-20T05:54:03;4.85;;;2.47;;
6374;SDS011;35400;45.472;-122.822;2023-05-20T05:56:30;3.55;;;2.47;;
6374;SDS011;35400;45.472;-122.822;2023-05-20T05:58:57;3.03;;;1.95;;
6374;SDS011;35400;45.472;-122.822;2023-05-20T06:01:23;3.28;;;2.25;;
6374;SDS011;35400;45.472;-122.822;2023-05-20T06:03:51;4.97;;;2.20;;
6374;SDS011;35400;45.472;-122.822;2023-05-20T06:06:18;4.35;;;2.25;;
6374;SDS011;35400;45.472;-122.822;2023-05-20T06:08:47;2.45;;;1.88;;
6374;SDS011;35400;45.472;-122.822;2023-05-20T06:11:14;3.65;;;1.95;;
6374;SDS011;35400;45.472;-122.822;2023-05-20T06:13:41;2.33;;;2.08;;
6374;SDS011;35400;45.472;-122.822;2023-05-20T06:16:08;4.40;;;2.45;;
6374;SDS011;35400;45.472;-122.822;2023-05-20T06:18:35;2.13;;;1.92;;
6374;SDS011;35400;45.472;-122.822;2023-05-20T06:21:03;1.98;;;1.73;;
6374;SDS011;35400;45.472;-122.822;2023-05-20T06:23:31;3.88;;;1.85;;
6374;SDS011;35400;45.472;-122.822;2023-05-20T06:26:00;3.08;;;1.70;;
6374;SDS011;35400;45.472;-122.822;2023-05-20T06:28:28;3.25;;;1.92;;
6374;SDS011;35400;45.472;-122.822;2023-05-20T06:30:56;6.05;;;2.28;;
6374;SDS011;35400;45.472;-122.822;2023-05-20T06:33:25;2.17;;;1.83;;
6374;SDS011;35400;45.472;-122.822;2023-05-20T06:35:55;3.03;;;1.92;;
6374;SDS011;35400;45.472;-122.822;2023-05-20T06:38:24;2.72;;;1.60;;
6374;SDS011;35400;45.472;-122.822;2023-05-20T06:40:51;1.98;;;1.77;;
6374;SDS011;35400;45.472;-122.822;2023-05-20T06:43:17;4.90;;;2.10;;
6374;SDS011;35400;45.472;-122.822;2023-05-20T06:46:02;3.00;;;1.83;;
6374;SDS011;35400;45.472;-122.822;2023-05-20T06:48:34;3.30;;;2.03;;
6374;SDS011;35400;45.472;-122.822;2023-05-20T06:51:01;4.40;;;1.85;;
6374;SDS011;35400;45.472;-122.822;2023-05-20T06:53:29;3.40;;;1.60;;
6374;SDS011;35400;45.472;-122.822;2023-05-20T06:55:56;3.40;;;1.40;;
6374;SDS011;35400;45.472;-122.822;2023-05-20T06:58:23;4.50;;;1.47;;
6374;SDS011;35400;45.472;-122.822;2023-05-20T07:00:51;4.43;;;1.50;;
6374;SDS011;35400;45.472;-122.822;2023-05-20T07:03:17;1.67;;;1.40;;
6374;SDS011;35400;45.472;-122.822;2023-05-20T07:05:45;3.43;;;1.40;;
6374;SDS011;35400;45.472;-122.822;2023-05-20T07:08:12;3.07;;;1.33;;
6374;SDS011;35400;45.472;-122.822;2023-05-20T07:10:39;2.10;;;1.33;;
6374;SDS011;35400;45.472;-122.822;2023-05-20T07:13:07;1.80;;;1.33;;
6374;SDS011;35400;45.472;-122.822;2023-05-20T07:15:34;2.83;;;1.50;;
6374;SDS011;35400;45.472;-122.822;2023-05-20T07:18:00;2.10;;;1.20;;
6374;SDS011;35400;45.472;-122.822;2023-05-20T07:20:28;5.13;;;1.70;;
6374;SDS011;35400;45.472;-122.822;2023-05-20T07:22:57;2.80;;;1.50;;
6374;SDS011;35400;45.472;-122.822;2023-05-20T07:25:31;3.13;;;1.80;;
6374;SDS011;35400;45.472;-122.822;2023-05-20T07:27:58;2.13;;;1.70;;
6374;SDS011;35400;45.472;-122.822;2023-05-20T07:30:25;3.13;;;1.53;;
6374;SDS011;35400;45.472;-122.822;2023-05-20T07:33:12;2.73;;;1.10;;
6374;SDS011;35400;45.472;-122.822;2023-05-20T07:35:39;1.93;;;0.93;;
6374;SDS011;35400;45.472;-122.822;2023-05-20T07:38:06;2.20;;;1.17;;
6374;SDS011;35400;45.472;-122.822;2023-05-20T07:40:33;4.07;;;1.47;;
6374;SDS011;35400;45.472;-122.822;2023-05-20T07:43:01;1.77;;;1.20;;
6374;SDS011;35400;45.472;-122.822;2023-05-20T07:45:28;2.90;;;0.93;;
6374;SDS011;35400;45.472;-122.822;2023-05-20T07:47:55;2.47;;;1.00;;
6374;SDS011;35400;45.472;-122.822;2023-05-20T07:50:22;1.60;;;0.90;;
6374;SDS011;35400;45.472;-122.822;2023-05-20T07:52:49;2.43;;;1.20;;
6374;SDS011;35400;45.472;-122.822;2023-05-20T07:55:16;1.00;;;0.90;;
6374;SDS011;35400;45.472;-122.822;2023-05-20T07:57:43;1.67;;;0.90;;
6374;SDS011;35400;45.472;-122.822;2023-05-20T08:00:10;1.47;;;1.00;;
6374;SDS011;35400;45.472;-122.822;2023-05-20T08:02:42;1.77;;;0.90;;
6374;SDS011;35400;45.472;-122.822;2023-05-20T08:05:12;2.27;;;1.10;;
6374;SDS011;35400;45.472;-122.822;2023-05-20T08:07:39;2.70;;;1.00;;
6374;SDS011;35400;45.472;-122.822;2023-05-20T08:10:07;1.67;;;1.03;;
6374;SDS011;35400;45.472;-122.822;2023-05-20T08:12:35;0.93;;;0.93;;
6374;SDS011;35400;45.472;-122.822;2023-05-20T08:15:02;3.13;;;1.10;;
6374;SDS011;35400;45.472;-122.822;2023-05-20T08:17:31;1.97;;;0.83;;
6374;SDS011;35400;45.472;-122.822;2023-05-20T08:19:59;1.27;;;0.80;;
6374;SDS011;35400;45.472;-122.822;2023-05-20T08:22:27;2.37;;;1.00;;
6374;SDS011;35400;45.472;-122.822;2023-05-20T08:24:54;2.40;;;0.93;;
6374;SDS011;35400;45.472;-122.822;2023-05-20T08:27:21;2.37;;;0.80;;
6374;SDS011;35400;45.472;-122.822;2023-05-20T08:29:48;2.40;;;0.93;;
6374;SDS011;35400;45.472;-122.822;2023-05-20T08:32:15;1.73;;;1.00;;
6374;SDS011;35400;45.472;-122.822;2023-05-20T08:34:43;1.10;;;1.00;;
6374;SDS011;35400;45.472;-122.822;2023-05-20T08:37:10;1.40;;;0.87;;
6374;SDS011;35400;45.472;-122.822;2023-05-20T08:39:37;4.47;;;1.00;;
6374;SDS011;35400;45.472;-122.822;2023-05-20T08:42:05;1.53;;;1.03;;
6374;SDS011;35400;45.472;-122.822;2023-05-20T08:44:34;2.33;;;1.20;;
6374;SDS011;35400;45.472;-122.822;2023-05-20T08:47:01;1.37;;;1.13;;
6374;SDS011;35400;45.472;-122.822;2023-05-20T08:49:30;2.80;;;1.00;;
6374;SDS011;35400;45.472;-122.822;2023-05-20T08:52:00;0.80;;;0.80;;
6374;SDS011;35400;45.472;-122.822;2023-05-20T08:54:31;1.10;;;1.00;;
6374;SDS011;35400;45.472;-122.822;2023-05-20T08:57:12;2.73;;;1.00;;
6374;SDS011;35400;45.472;-122.822;2023-05-20T08:59:42;1.00;;;1.00;;
6374;SDS011;35400;45.472;-122.822;2023-05-20T09:02:09;2.87;;;0.97;;
6374;SDS011;35400;45.472;-122.822;2023-05-20T09:04:37;1.90;;;0.90;;
6374;SDS011;35400;45.472;-122.822;2023-05-20T09:07:04;2.50;;;1.20;;
6374;SDS011;35400;45.472;-122.822;2023-05-20T09:09:32;1.70;;;0.83;;
6374;SDS011;35400;45.472;-122.822;2023-05-20T09:12:00;2.37;;;1.03;;
6374;SDS011;35400;45.472;-122.822;2023-05-20T09:14:28;1.23;;;0.90;;
6374;SDS011;35400;45.472;-122.822;2023-05-20T09:16:58;1.30;;;1.20;;
6374;SDS011;35400;45.472;-122.822;2023-05-20T09:19:25;2.10;;;0.97;;
6374;SDS011;35400;45.472;-122.822;2023-05-20T09:21:52;1.60;;;0.90;;
6374;SDS011;35400;45.472;-122.822;2023-05-20T09:24:23;1.03;;;0.90;;
6374;SDS011;35400;45.472;-122.822;2023-05-20T09:26:51;2.77;;;1.10;;
6374;SDS011;35400;45.472;-122.822;2023-05-20T09:29:18;1.90;;;1.10;;
6374;SDS011;35400;45.472;-122.822;2023-05-20T09:31:46;2.63;;;1.17;;
6374;SDS011;35400;45.472;-122.822;2023-05-20T09:34:14;1.83;;;0.90;;
6374;SDS011;35400;45.472;-122.822;2023-05-20T09:36:41;2.63;;;1.00;;
6374;SDS011;35400;45.472;-122.822;2023-05-20T09:39:15;0.90;;;0.83;;
6374;SDS011;35400;45.472;-122.822;2023-05-20T09:41:48;1.90;;;1.17;;
6374;SDS011;35400;45.472;-122.822;2023-05-20T09:44:21;1.23;;;0.80;;
6374;SDS011;35400;45.472;-122.822;2023-05-20T09:46:49;1.53;;;0.90;;
6374;SDS011;35400;45.472;-122.822;2023-05-20T09:49:17;1.80;;;1.00;;
6374;SDS011;35400;45.472;-122.822;2023-05-20T09:51:45;2.83;;;1.07;;
6374;SDS011;35400;45.472;-122.822;2023-05-20T09:54:15;1.20;;;0.80;;
6374;SDS011;35400;45.472;-122.822;2023-05-20T09:56:45;4.27;;;0.93;;
6374;SDS011;35400;45.472;-122.822;2023-05-20T09:59:14;3.43;;;1.20;;
6374;SDS011;35400;45.472;-122.822;2023-05-20T10:01:42;2.27;;;0.90;;
6374;SDS011;35400;45.472;-122.822;2023-05-20T10:04:10;3.03;;;1.00;;
6374;SDS011;35400;45.472;-122.822;2023-05-20T10:18:01;1.27;;;0.83;;
6374;SDS011;35400;45.472;-122.822;2023-05-20T10:20:31;2.77;;;1.10;;
6374;SDS011;35400;45.472;-122.822;2023-05-20T10:23:18;1.83;;;1.20;;
6374;SDS011;35400;45.472;-122.822;2023-05-20T10:25:50;2.00;;;1.03;;
6374;SDS011;35400;45.472;-122.822;2023-05-20T10:28:28;2.10;;;1.00;;
6374;SDS011;35400;45.472;-122.822;2023-05-20T10:31:01;1.60;;;1.17;;
6374;SDS011;35400;45.472;-122.822;2023-05-20T10:33:28;2.90;;;0.97;;
6374;SDS011;35400;45.472;-122.822;2023-05-20T10:36:06;1.43;;;0.90;;
6374;SDS011;35400;45.472;-122.822;2023-05-20T10:38:33;1.20;;;0.97;;
6374;SDS011;35400;45.472;-122.822;2023-05-20T10:41:09;1.57;;;1.03;;
6374;SDS011;35400;45.472;-122.822;2023-05-20T10:43:36;1.20;;;1.03;;
6374;SDS011;35400;45.472;-122.822;2023-05-20T10:46:03;1.93;;;1.10;;
6374;SDS011;35400;45.472;-122.822;2023-05-20T10:48:30;1.23;;;0.87;;
6374;SDS011;35400;45.472;-122.822;2023-05-20T10:50:59;1.53;;;1.07;;
6374;SDS011;35400;45.472;-122.822;2023-05-20T10:53:39;1.67;;;1.03;;
6374;SDS011;35400;45.472;-122.822;2023-05-20T10:56:15;1.33;;;1.00;;
6374;SDS011;35400;45.472;-122.822;2023-05-20T10:58:43;0.83;;;0.83;;
6374;SDS011;35400;45.472;-122.822;2023-05-20T11:01:10;1.73;;;1.33;;
6374;SDS011;35400;45.472;-122.822;2023-05-20T11:03:45;0.93;;;0.80;;
6374;SDS011;35400;45.472;-122.822;2023-05-20T11:06:16;1.47;;;1.10;;
6374;SDS011;35400;45.472;-122.822;2023-05-20T11:08:44;0.80;;;0.80;;
6374;SDS011;35400;45.472;-122.822;2023-05-20T11:11:11;2.00;;;1.40;;
6374;SDS011;35400;45.472;-122.822;2023-05-20T11:13:39;1.47;;;0.90;;
6374;SDS011;35400;45.472;-122.822;2023-05-20T11:16:07;1.93;;;1.30;;
6374;SDS011;35400;45.472;-122.822;2023-05-20T11:18:34;4.20;;;1.33;;
6374;SDS011;35400;45.472;-122.822;2023-05-20T11:21:01;1.10;;;1.00;;
6374;SDS011;35400;45.472;-122.822;2023-05-20T11:23:28;1.17;;;0.93;;
6374;SDS011;35400;45.472;-122.822;2023-05-20T11:25:55;2.23;;;1.10;;
6374;SDS011;35400;45.472;-122.822;2023-05-20T11:28:23;1.17;;;1.00;;
6374;SDS011;35400;45.472;-122.822;2023-05-20T11:30:50;1.43;;;0.90;;
6374;SDS011;35400;45.472;-122.822;2023-05-20T11:33:18;1.07;;;1.00;;
6374;SDS011;35400;45.472;-122.822;2023-05-20T11:35:48;1.17;;;0.97;;
6374;SDS011;35400;45.472;-122.822;2023-05-20T11:38:19;1.20;;;1.10;;
6374;SDS011;35400;45.472;-122.822;2023-05-20T11:40:50;3.33;;;1.10;;
6374;SDS011;35400;45.472;-122.822;2023-05-20T11:43:18;2.47;;;1.50;;
6374;SDS011;35400;45.472;-122.822;2023-05-20T11:45:47;1.03;;;0.87;;
6374;SDS011;35400;45.472;-122.822;2023-05-20T11:48:24;2.27;;;1.20;;
6374;SDS011;35400;45.472;-122.822;2023-05-20T11:50:52;1.60;;;1.00;;
6374;SDS011;35400;45.472;-122.822;2023-05-20T11:53:22;1.40;;;1.00;;
6374;SDS011;35400;45.472;-122.822;2023-05-20T11:55:51;1.10;;;0.90;;
6374;SDS011;35400;45.472;-122.822;2023-05-20T11:58:20;1.23;;;1.07;;
6374;SDS011;35400;45.472;-122.822;2023-05-20T12:00:49;1.60;;;1.03;;
6374;SDS011;35400;45.472;-122.822;2023-05-20T12:03:17;2.33;;;1.10;;
6374;SDS011;35400;45.472;-122.822;2023-05-20T12:05:44;2.17;;;1.10;;
6374;SDS011;35400;45.472;-122.822;2023-05-20T12:08:13;1.60;;;0.97;;
6374;SDS011;35400;45.472;-122.822;2023-05-20T12:10:40;1.17;;;1.07;;
6374;SDS011;35400;45.472;-122.822;2023-05-20T12:13:07;1.33;;;0.90;;
6374;SDS011;35400;45.472;-122.822;2023-05-20T12:15:35;2.60;;;1.13;;
6374;SDS011;35400;45.472;-122.822;2023-05-20T12:18:02;1.83;;;1.00;;
6374;SDS011;35400;45.472;-122.822;2023-05-20T12:20:30;1.10;;;1.00;;
6374;SDS011;35400;45.472;-122.822;2023-05-20T12:22:59;1.40;;;0.80;;
6374;SDS011;35400;45.472;-122.822;2023-05-20T12:25:26;2.07;;;1.13;;
6374;SDS011;35400;45.472;-122.822;2023-05-20T12:27:54;2.97;;;1.30;;
6374;SDS011;35400;45.472;-122.822;2023-05-20T12:30:21;3.20;;;1.23;;
6374;SDS011;35400;45.472;-122.822;2023-05-20T12:32:49;2.73;;;1.20;;
6374;SDS011;35400;45.472;-122.822;2023-05-20T12:35:17;2.40;;;1.20;;
6374;SDS011;35400;45.472;-122.822;2023-05-20T12:37:50;1.90;;;1.20;;
6374;SDS011;35400;45.472;-122.822;2023-05-20T12:40:17;3.17;;;1.20;;
6374;SDS011;35400;45.472;-122.822;2023-05-20T12:42:44;1.87;;;1.03;;
6374;SDS011;35400;45.472;-122.822;2023-05-20T12:45:11;1.50;;;1.10;;
6374;SDS011;35400;45.472;-122.822;2023-05-20T12:47:38;2.63;;;1.17;;
6374;SDS011;35400;45.472;-122.822;2023-05-20T12:50:05;2.83;;;0.90;;
6374;SDS011;35400;45.472;-122.822;2023-05-20T12:52:32;1.13;;;0.90;;
6374;SDS011;35400;45.472;-122.822;2023-05-20T12:54:58;2.97;;;1.20;;
6374;SDS011;35400;45.472;-122.822;2023-05-20T12:57:26;3.73;;;1.10;;
6374;SDS011;35400;45.472;-122.822;2023-05-20T12:59:53;1.30;;;1.20;;
6374;SDS011;35400;45.472;-122.822;2023-05-20T13:02:20;1.67;;;1.20;;
6374;SDS011;35400;45.472;-122.822;2023-05-20T13:04:46;2.63;;;1.50;;
6374;SDS011;35400;45.472;-122.822;2023-05-20T13:07:13;3.47;;;1.10;;
6374;SDS011;35400;45.472;-122.822;2023-05-20T13:09:40;2.17;;;1.40;;
6374;SDS011;35400;45.472;-122.822;2023-05-20T13:12:07;1.63;;;1.10;;
6374;SDS011;35400;45.472;-122.822;2023-05-20T13:14:34;1.40;;;1.10;;
6374;SDS011;35400;45.472;-122.822;2023-05-20T13:17:01;1.97;;;1.13;;
6374;SDS011;35400;45.472;-122.822;2023-05-20T13:19:28;3.40;;;1.53;;
6374;SDS011;35400;45.472;-122.822;2023-05-20T13:21:54;1.30;;;1.10;;
6374;SDS011;35400;45.472;-122.822;2023-05-20T13:24:21;1.73;;;1.40;;
6374;SDS011;35400;45.472;-122.822;2023-05-20T13:26:48;2.43;;;1.33;;
6374;SDS011;35400;45.472;-122.822;2023-05-20T13:29:15;2.70;;;1.17;;
6374;SDS011;35400;45.472;-122.822;2023-05-20T13:31:42;1.83;;;1.30;;
6374;SDS011;35400;45.472;-122.822;2023-05-20T13:34:09;2.03;;;1.60;;
6374;SDS011;35400;45.472;-122.822;2023-05-20T13:36:36;1.57;;;1.47;;
6374;SDS011;35400;45.472;-122.822;2023-05-20T13:39:03;2.00;;;1.37;;
6374;SDS011;35400;45.472;-122.822;2023-05-20T13:41:30;1.67;;;1.43;;
6374;SDS011;35400;45.472;-122.822;2023-05-20T13:43:57;3.80;;;1.70;;
6374;SDS011;35400;45.472;-122.822;2023-05-20T13:46:24;2.33;;;1.73;;
6374;SDS011;35400;45.472;-122.822;2023-05-20T13:48:51;1.87;;;1.67;;
6374;SDS011;35400;45.472;-122.822;2023-05-20T13:51:18;1.60;;;1.50;;
6374;SDS011;35400;45.472;-122.822;2023-05-20T13:53:44;1.87;;;1.50;;
6374;SDS011;35400;45.472;-122.822;2023-05-20T13:56:11;2.60;;;1.60;;
6374;SDS011;35400;45.472;-122.822;2023-05-20T13:58:38;4.13;;;1.40;;
6374;SDS011;35400;45.472;-122.822;2023-05-20T14:01:06;5.80;;;1.70;;
6374;SDS011;35400;45.472;-122.822;2023-05-20T14:03:33;3.57;;;1.57;;
6374;SDS011;35400;45.472;-122.822;2023-05-20T14:06:02;3.53;;;1.60;;
6374;SDS011;35400;45.472;-122.822;2023-05-20T14:08:28;4.73;;;1.40;;
6374;SDS011;35400;45.472;-122.822;2023-05-20T14:10:55;4.00;;;1.37;;
6374;SDS011;35400;45.472;-122.822;2023-05-20T14:13:22;3.10;;;1.80;;
6374;SDS011;35400;45.472;-122.822;2023-05-20T14:15:50;1.83;;;1.27;;
6374;SDS011;35400;45.472;-122.822;2023-05-20T14:18:19;1.53;;;1.23;;
6374;SDS011;35400;45.472;-122.822;2023-05-20T14:20:46;5.37;;;1.43;;
6374;SDS011;35400;45.472;-122.822;2023-05-20T14:23:13;1.77;;;1.03;;
6374;SDS011;35400;45.472;-122.822;2023-05-20T14:25:40;3.57;;;1.37;;
6374;SDS011;35400;45.472;-122.822;2023-05-20T14:28:07;0.97;;;0.90;;
6374;SDS011;35400;45.472;-122.822;2023-05-20T14:30:34;1.77;;;1.10;;
6374;SDS011;35400;45.472;-122.822;2023-05-20T14:33:00;2.37;;;1.10;;
6374;SDS011;35400;45.472;-122.822;2023-05-20T14:35:27;2.10;;;1.00;;
6374;SDS011;35400;45.472;-122.822;2023-05-20T14:37:54;1.23;;;1.00;;